Terminal Aerodrome Forecast
Issued by NWS

Home | Current Version | Previous Version | Text Only | Print | Product List | Glossary On
Versions: 1 2 3 4 5 6 7 8 9 10 11 12 13 14 15 16 17 18 19 20 21 22 23
000
FTUS44 KLZK 270631 AAA
TAFHRO
TAF AMD
KHRO 270631Z 2707/2806 29009KT P6SM SCT015 OVC040
     FM270900 29008KT 6SM BR BKN025 OVC050
     FM271200 30006KT P6SM SCT050
     FM271800 19005KT P6SM FEW100 SCT250
     FM280000 14008KT P6SM OVC100=

USA.gov is the U.S. government's official web portal to all federal, state and local government web resources and services.